Time;durP1;ratioP1;P1;durP2;ratioP2;P2;SDS_P1;SDS_P2;PMS_P1;PMS_P2;Temp;Humidity;BMP_temperature;BMP_pressure;BME280_temperature;BME280_humidity;BME280_pressure;Samples;Min_cycle;Max_cycle;Signal;HPM_P1;HPM_P2
2023/12/08 00:01:50;;;;;;;1999.90;999.90;;;3.60;99.90;;;;;;4995311;28;20180;-71
2023/12/08 00:04:16;;;;;;;1999.90;999.90;;;3.70;99.90;;;;;;4995116;28;20256;-70
2023/12/08 00:06:41;;;;;;;1999.90;999.90;;;3.70;99.90;;;;;;4995220;28;20180;-70
2023/12/08 00:09:07;;;;;;;1999.90;999.90;;;3.70;99.90;;;;;;4994757;28;20198;-70
2023/12/08 00:11:32;;;;;;;1999.90;999.90;;;3.70;99.90;;;;;;4995037;28;20196;-70
2023/12/08 00:13:58;;;;;;;1999.90;999.90;;;3.80;99.90;;;;;;4995242;28;20225;-70
2023/12/08 00:16:24;;;;;;;1999.90;999.90;;;3.90;99.90;;;;;;4995024;28;20174;-70
2023/12/08 00:18:50;;;;;;;1999.90;999.90;;;3.80;99.90;;;;;;4994770;28;20260;-70
2023/12/08 00:21:16;;;;;;;1999.90;999.90;;;3.90;99.90;;;;;;4994971;28;20409;-70
2023/12/08 00:23:41;;;;;;;1999.90;999.90;;;3.80;99.90;;;;;;4994815;28;20686;-70
2023/12/08 00:26:07;;;;;;;1999.90;999.90;;;3.90;99.90;;;;;;4994775;28;20468;-71
2023/12/08 00:28:33;;;;;;;1999.90;999.90;;;3.90;99.90;;;;;;4994588;28;20269;-71
2023/12/08 00:30:58;;;;;;;1999.90;999.90;;;3.90;99.90;;;;;;4994808;28;20637;-70
2023/12/08 00:33:24;;;;;;;1999.90;999.90;;;3.90;99.90;;;;;;4994592;28;20583;-70
2023/12/08 00:35:50;;;;;;;1999.90;999.90;;;3.90;99.90;;;;;;4994762;28;20170;-70
2023/12/08 00:38:15;;;;;;;1999.90;999.90;;;3.90;99.90;;;;;;4994336;28;20197;-70
2023/12/08 00:40:41;;;;;;;1999.90;999.90;;;3.90;99.90;;;;;;4994531;28;20260;-70
2023/12/08 00:43:06;;;;;;;1999.90;999.90;;;3.90;99.90;;;;;;4994590;28;20212;-70
2023/12/08 00:45:32;;;;;;;1999.90;999.90;;;3.90;99.90;;;;;;4994466;28;20174;-70
2023/12/08 00:47:58;;;;;;;1999.90;999.90;;;3.70;99.90;;;;;;4994117;28;20538;-71
2023/12/08 00:50:23;;;;;;;1999.90;999.90;;;3.90;99.90;;;;;;4994389;28;20166;-72
2023/12/08 00:52:49;;;;;;;1999.90;999.90;;;3.90;99.90;;;;;;4994240;28;20252;-72
2023/12/08 00:55:15;;;;;;;1999.90;999.90;;;3.80;99.90;;;;;;4994314;28;20257;-71
2023/12/08 00:57:40;;;;;;;1999.90;999.90;;;3.90;99.90;;;;;;4993356;28;20180;-71
2023/12/08 01:00:06;;;;;;;1999.90;999.90;;;3.80;99.90;;;;;;4994160;28;20256;-71
2023/12/08 01:02:32;;;;;;;1999.90;999.90;;;3.80;99.90;;;;;;4994100;28;20608;-71
2023/12/08 01:04:58;;;;;;;1999.90;999.90;;;3.70;99.90;;;;;;4994113;28;20408;-71
2023/12/08 01:07:23;;;;;;;1999.90;999.90;;;3.80;99.90;;;;;;4993866;28;20201;-72
2023/12/08 01:09:49;;;;;;;1999.90;999.90;;;3.70;99.90;;;;;;4993894;28;20210;-71
2023/12/08 01:12:14;;;;;;;1999.90;999.90;;;3.70;99.90;;;;;;4993957;28;20173;-71
2023/12/08 01:14:40;;;;;;;1999.90;999.90;;;3.70;99.90;;;;;;4993943;28;20166;-71
2023/12/08 01:17:06;;;;;;;1999.90;999.90;;;3.70;99.90;;;;;;4993892;28;20166;-72
2023/12/08 01:19:32;;;;;;;1999.90;999.90;;;3.70;99.90;;;;;;4993630;28;20197;-72
2023/12/08 01:21:57;;;;;;;1999.90;999.90;;;3.70;99.90;;;;;;4993827;28;20169;-72
2023/12/08 01:24:23;;;;;;;1999.90;999.90;;;3.70;99.90;;;;;;4993665;28;20915;-71
2023/12/08 01:26:49;;;;;;;1999.90;999.90;;;3.70;99.90;;;;;;4993890;28;20228;-71
2023/12/08 01:29:15;;;;;;;1999.90;999.90;;;3.70;99.90;;;;;;4993487;28;20425;-71
2023/12/08 01:31:40;;;;;;;1999.90;999.90;;;3.70;99.90;;;;;;4993555;28;20585;-71
2023/12/08 01:34:06;;;;;;;1999.90;999.90;;;3.70;99.90;;;;;;4993527;28;20249;-72
2023/12/08 01:36:32;;;;;;;1999.90;999.90;;;3.70;99.90;;;;;;4993503;28;20200;-70
2023/12/08 01:38:58;;;;;;;1999.90;999.90;;;3.70;99.90;;;;;;4993142;28;20428;-72
2023/12/08 01:41:23;;;;;;;1999.90;999.90;;;3.70;99.90;;;;;;4993332;28;20170;-70
2023/12/08 01:43:49;;;;;;;1999.90;999.90;;;3.70;99.90;;;;;;4993295;28;20201;-71
2023/12/08 01:46:19;;;;;;;1999.90;999.90;;;3.70;99.90;;;;;;4993302;28;20162;-71
2023/12/08 01:48:46;;;;;;;1999.90;999.90;;;3.70;99.90;;;;;;4993110;28;20198;-71
2023/12/08 01:51:13;;;;;;;1999.90;999.90;;;3.70;99.90;;;;;;4993238;28;20185;-71
2023/12/08 01:53:43;;;;;;;1999.90;999.90;;;3.60;99.90;;;;;;4993093;28;20181;-71
2023/12/08 01:56:11;;;;;;;1999.90;999.90;;;3.60;99.90;;;;;;4993425;28;20181;-71
2023/12/08 01:58:37;;;;;;;1999.90;999.90;;;3.50;99.90;;;;;;4992863;28;20614;-71
2023/12/08 02:01:04;;;;;;;1999.90;999.90;;;3.50;99.90;;;;;;4993116;28;20440;-71
2023/12/08 02:03:33;;;;;;;1999.90;999.90;;;3.40;99.90;;;;;;4992920;28;20449;-71
2023/12/08 02:05:59;;;;;;;1999.90;999.90;;;3.40;99.90;;;;;;4993050;28;21039;-71
2023/12/08 02:08:25;;;;;;;1999.90;999.90;;;3.40;99.90;;;;;;4991716;28;20495;-71
2023/12/08 02:10:50;;;;;;;1999.90;999.90;;;3.50;99.90;;;;;;4993092;28;20905;-71
2023/12/08 02:13:16;;;;;;;1999.90;999.90;;;3.60;99.90;;;;;;4992833;28;20413;-70
2023/12/08 02:15:45;;;;;;;1999.90;999.90;;;3.60;99.90;;;;;;4992828;28;20228;-70
2023/12/08 02:18:13;;;;;;;1999.90;999.90;;;3.70;99.90;;;;;;4992561;28;20732;-69
2023/12/08 02:20:39;;;;;;;1999.90;999.90;;;3.60;99.90;;;;;;4992683;28;20417;-71
2023/12/08 02:23:07;;;;;;;1999.90;999.90;;;3.60;99.90;;;;;;4992807;28;20209;-69
2023/12/08 02:25:34;;;;;;;1999.90;999.90;;;3.50;99.90;;;;;;4992671;28;20401;-70
2023/12/08 02:28:04;;;;;;;1999.90;999.90;;;4.00;99.90;;;;;;4992443;28;20905;-70
2023/12/08 02:30:30;;;;;;;1999.90;999.90;;;3.60;99.90;;;;;;4992581;28;20971;-70
2023/12/08 02:33:05;;;;;;;1999.90;999.90;;;3.70;99.90;;;;;;4992627;28;20413;-70
2023/12/08 02:35:35;;;;;;;1999.90;999.90;;;3.70;99.90;;;;;;4992595;28;20899;-70
2023/12/08 02:38:04;;;;;;;1999.90;999.90;;;3.70;99.90;;;;;;4992343;28;20777;-71
2023/12/08 02:40:29;;;;;;;1999.90;999.90;;;3.80;99.90;;;;;;4992670;28;20907;-70
2023/12/08 02:42:55;;;;;;;1999.90;999.90;;;3.80;99.90;;;;;;4992383;28;20543;-70
2023/12/08 02:45:20;;;;;;;1999.90;999.90;;;3.90;99.90;;;;;;4992434;28;20164;-70
2023/12/08 02:47:46;;;;;;;1999.90;999.90;;;3.80;99.90;;;;;;4992280;28;20638;-70
2023/12/08 02:50:11;;;;;;;1999.90;999.90;;;3.80;99.90;;;;;;4992394;28;20186;-70
2023/12/08 02:52:37;;;;;;;1999.90;999.90;;;3.80;99.90;;;;;;4992368;28;20165;-70
2023/12/08 02:55:03;;;;;;;1999.90;999.90;;;3.80;99.90;;;;;;4992455;28;20200;-70
2023/12/08 02:57:28;;;;;;;1999.90;999.90;;;3.80;99.90;;;;;;4992219;28;20177;-71
2023/12/08 02:59:54;;;;;;;1999.90;999.90;;;3.80;99.90;;;;;;4992245;28;20782;-70
2023/12/08 03:02:19;;;;;;;1999.90;999.90;;;3.80;99.90;;;;;;4992177;28;20174;-70
2023/12/08 03:04:46;;;;;;;1999.90;999.90;;;3.90;99.90;;;;;;4992522;28;20644;-70
2023/12/08 03:07:12;;;;;;;1999.90;999.90;;;3.90;99.90;;;;;;4992307;28;20166;-70
2023/12/08 03:09:37;;;;;;;1999.90;999.90;;;3.90;99.90;;;;;;4991960;28;20193;-71
2023/12/08 03:12:03;;;;;;;1999.90;999.90;;;3.90;99.90;;;;;;4992280;28;20170;-70
2023/12/08 03:14:29;;;;;;;1999.90;999.90;;;3.80;99.90;;;;;;4992254;28;20169;-70
2023/12/08 03:16:54;;;;;;;1999.90;999.90;;;3.90;99.90;;;;;;4992231;28;20467;-70
2023/12/08 03:19:20;;;;;;;1999.90;999.90;;;3.90;99.90;;;;;;4991956;28;20559;-71
2023/12/08 03:21:46;;;;;;;1999.90;999.90;;;3.80;99.90;;;;;;4995740;28;20185;-71
2023/12/08 03:24:11;;;;;;;1999.90;999.90;;;3.70;99.90;;;;;;4995912;28;20213;-70
2023/12/08 03:26:37;;;;;;;1999.90;999.90;;;3.70;99.90;;;;;;4995962;28;20174;-70
2023/12/08 03:29:03;;;;;;;1999.90;999.90;;;3.60;99.90;;;;;;4995662;28;20637;-70
2023/12/08 03:31:32;;;;;;;1999.90;999.90;;;3.60;99.90;;;;;;4995760;28;20433;-71
2023/12/08 03:33:57;;;;;;;1999.90;999.90;;;3.60;99.90;;;;;;4995820;28;20166;-71
2023/12/08 03:36:23;;;;;;;1999.90;999.90;;;3.60;99.90;;;;;;4995796;28;20909;-71
2023/12/08 03:38:49;;;;;;;1999.90;999.90;;;3.70;99.90;;;;;;4995460;28;20760;-71
2023/12/08 03:41:14;;;;;;;1999.90;999.90;;;3.60;99.90;;;;;;4995642;28;20173;-70
2023/12/08 03:43:40;;;;;;;1999.90;999.90;;;3.70;99.90;;;;;;4995496;28;20193;-71
2023/12/08 03:46:06;;;;;;;1999.90;999.90;;;3.60;99.90;;;;;;4995579;28;20538;-70
2023/12/08 03:48:34;;;;;;;1999.90;999.90;;;3.60;99.90;;;;;;4995498;28;20189;-71
2023/12/08 03:50:59;;;;;;;1999.90;999.90;;;3.60;99.90;;;;;;4995500;28;20757;-71
2023/12/08 03:53:25;;;;;;;1999.90;999.90;;;3.50;99.90;;;;;;4995379;28;20411;-71
2023/12/08 03:55:50;;;;;;;1999.90;999.90;;;3.50;99.90;;;;;;4995370;28;20192;-71
2023/12/08 03:58:16;;;;;;;1999.90;999.90;;;3.50;99.90;;;;;;4995276;28;20194;-70
2023/12/08 04:00:41;;;;;;;1999.90;999.90;;;3.60;99.90;;;;;;4995288;28;20822;-71
2023/12/08 04:03:07;;;;;;;1999.90;999.90;;;3.50;99.90;;;;;;4995169;28;20193;-71
2023/12/08 04:05:33;;;;;;;1999.90;999.90;;;3.60;99.90;;;;;;4995299;28;20249;-71
2023/12/08 04:07:58;;;;;;;1999.90;999.90;;;3.60;99.90;;;;;;4994810;28;20633;-71
2023/12/08 04:10:24;;;;;;;1999.90;999.90;;;3.60;99.90;;;;;;4995199;28;20166;-71
2023/12/08 04:12:49;;;;;;;1999.90;999.90;;;3.60;99.90;;;;;;4995001;28;20178;-70
2023/12/08 04:15:15;;;;;;;1999.90;999.90;;;3.50;99.90;;;;;;4995099;28;20173;-72
2023/12/08 04:17:41;;;;;;;1999.90;999.90;;;3.40;99.90;;;;;;4994851;28;20177;-71
2023/12/08 04:20:06;;;;;;;1999.90;999.90;;;3.30;99.90;;;;;;4994951;28;20189;-70
2023/12/08 04:22:32;;;;;;;1999.90;999.90;;;3.30;99.90;;;;;;4994781;28;20205;-70
2023/12/08 04:24:57;;;;;;;1999.90;999.90;;;3.20;99.90;;;;;;4994950;28;20166;-71
2023/12/08 04:27:23;;;;;;;1999.90;999.90;;;3.20;99.90;;;;;;4994638;28;20173;-71
2023/12/08 04:29:49;;;;;;;1999.90;999.90;;;3.20;99.90;;;;;;4994689;28;20728;-71
2023/12/08 04:32:14;;;;;;;1999.90;999.90;;;3.20;99.90;;;;;;4993652;28;20201;-71
2023/12/08 04:34:40;;;;;;;1999.90;999.90;;;3.20;99.90;;;;;;4994722;28;20195;-71
2023/12/08 04:37:05;;;;;;;1999.90;999.90;;;3.20;99.90;;;;;;4994709;28;20177;-70
2023/12/08 04:39:31;;;;;;;1999.90;999.90;;;3.10;99.90;;;;;;4994405;28;20200;-70
2023/12/08 04:41:56;;;;;;;1999.90;999.90;;;3.10;99.90;;;;;;4994495;28;20181;-71
2023/12/08 04:44:22;;;;;;;1999.90;999.90;;;3.10;99.90;;;;;;4994434;28;20611;-71
2023/12/08 04:46:47;;;;;;;1999.90;999.90;;;3.20;99.90;;;;;;4994479;28;20174;-71
2023/12/08 04:49:13;;;;;;;1999.90;999.90;;;3.10;99.90;;;;;;4994181;28;20201;-70
2023/12/08 04:51:42;;;;;;;1999.90;999.90;;;3.10;99.90;;;;;;4994377;28;20253;-71
2023/12/08 04:54:08;;;;;;;1999.90;999.90;;;3.10;99.90;;;;;;4994668;28;20174;-71
2023/12/08 04:56:33;;;;;;;1999.90;999.90;;;3.10;99.90;;;;;;4994252;28;20641;-71
2023/12/08 04:58:59;;;;;;;1999.90;999.90;;;3.10;99.90;;;;;;4993957;28;20429;-71
2023/12/08 05:01:24;;;;;;;1999.90;999.90;;;3.20;99.90;;;;;;4994242;28;20174;-71
2023/12/08 05:03:50;;;;;;;1999.90;999.90;;;3.20;99.90;;;;;;4994120;28;20205;-71
2023/12/08 05:06:16;;;;;;;1999.90;999.90;;;3.20;99.90;;;;;;4994274;28;20600;-71
2023/12/08 05:08:42;;;;;;;1999.90;999.90;;;3.20;99.90;;;;;;4993745;28;20304;-71
2023/12/08 05:11:07;;;;;;;1999.90;999.90;;;3.20;99.90;;;;;;4993986;28;20169;-71
2023/12/08 05:13:33;;;;;;;1999.90;999.90;;;3.20;99.90;;;;;;4994002;28;20224;-71
2023/12/08 05:15:59;;;;;;;1999.90;999.90;;;3.20;99.90;;;;;;4993922;28;20173;-72
2023/12/08 05:18:25;;;;;;;1999.90;999.90;;;3.20;99.90;;;;;;4993814;28;20197;-71
2023/12/08 05:20:51;;;;;;;1999.90;999.90;;;3.30;99.90;;;;;;4993978;28;20444;-71
2023/12/08 05:23:18;;;;;;;1999.90;999.90;;;3.20;99.90;;;;;;4993770;28;20495;-71
2023/12/08 05:25:44;;;;;;;1999.90;999.90;;;3.30;99.90;;;;;;4993745;28;20261;-71
2023/12/08 05:28:09;;;;;;;1999.90;999.90;;;3.00;99.90;;;;;;4993413;28;20851;-71
2023/12/08 05:30:35;;;;;;;1999.90;999.90;;;3.30;99.90;;;;;;4993675;28;20463;-72
2023/12/08 05:33:01;;;;;;;1999.90;999.90;;;3.20;99.90;;;;;;4993873;28;20180;-72
2023/12/08 05:35:27;;;;;;;1999.90;999.90;;;3.20;99.90;;;;;;4993577;28;20479;-70
2023/12/08 05:37:52;;;;;;;1999.90;999.90;;;3.20;99.90;;;;;;4993298;28;20871;-71
2023/12/08 05:40:18;;;;;;;1999.90;999.90;;;3.20;99.90;;;;;;4993400;28;20193;-72
2023/12/08 05:42:44;;;;;;;1999.90;999.90;;;3.30;99.90;;;;;;4992977;28;20267;-71
2023/12/08 05:45:10;;;;;;;1999.90;999.90;;;3.20;99.90;;;;;;4993479;28;20416;-71
2023/12/08 05:47:35;;;;;;;1999.90;999.90;;;3.20;99.90;;;;;;4993199;28;20536;-72
2023/12/08 05:50:02;;;;;;;1999.90;999.90;;;3.20;99.90;;;;;;4993223;28;20676;-71
2023/12/08 05:52:28;;;;;;;1999.90;999.90;;;3.20;99.90;;;;;;4993198;28;20169;-71
2023/12/08 05:54:54;;;;;;;1999.90;999.90;;;3.20;99.90;;;;;;4993229;28;20188;-71
2023/12/08 05:57:19;;;;;;;1999.90;999.90;;;3.20;99.90;;;;;;4992945;28;20649;-71
2023/12/08 05:59:45;;;;;;;1999.90;999.90;;;3.30;99.90;;;;;;4993037;28;20185;-71
2023/12/08 06:02:10;;;;;;;1999.90;999.90;;;3.30;99.90;;;;;;4993062;28;20174;-71
2023/12/08 06:04:36;;;;;;;1999.90;999.90;;;3.20;99.90;;;;;;4993045;28;20247;-71
2023/12/08 06:07:02;;;;;;;1999.90;999.90;;;3.30;99.90;;;;;;4993148;28;20198;-71
2023/12/08 06:09:27;;;;;;;1999.90;999.90;;;3.30;99.90;;;;;;4992560;28;20215;-70
2023/12/08 06:11:53;;;;;;;1999.90;999.90;;;3.30;99.90;;;;;;4992778;28;20162;-70
2023/12/08 06:14:18;;;;;;;1999.90;999.90;;;3.30;99.90;;;;;;4993148;28;20174;-71
2023/12/08 06:16:44;;;;;;;1999.90;999.90;;;3.30;99.90;;;;;;4992836;28;20292;-71
2023/12/08 06:19:10;;;;;;;1999.90;999.90;;;3.30;99.90;;;;;;4992567;28;20202;-71
2023/12/08 06:21:35;;;;;;;1999.90;999.90;;;3.30;99.90;;;;;;4992755;28;20237;-72
2023/12/08 06:24:01;;;;;;;1999.90;999.90;;;3.30;99.90;;;;;;4991762;28;20211;-71
2023/12/08 06:26:26;;;;;;;1999.90;999.90;;;3.40;99.90;;;;;;4992595;28;20591;-72
2023/12/08 06:28:53;;;;;;;1999.90;999.90;;;3.50;99.90;;;;;;4992322;28;20189;-70
2023/12/08 06:31:18;;;;;;;1999.90;999.90;;;3.50;99.90;;;;;;4990800;28;20540;-70
2023/12/08 06:33:44;;;;;;;1999.90;999.90;;;3.50;99.90;;;;;;4992452;28;20473;-70
2023/12/08 06:36:10;;;;;;;1999.90;999.90;;;3.50;99.90;;;;;;4992333;28;20169;-70
2023/12/08 06:38:39;;;;;;;1999.90;999.90;;;3.50;99.90;;;;;;4991298;28;20243;-70
2023/12/08 06:41:05;;;;;;;1999.90;999.90;;;3.50;99.90;;;;;;4992148;28;20416;-70
2023/12/08 06:43:31;;;;;;;1999.90;999.90;;;3.50;99.90;;;;;;4992165;28;20543;-70
2023/12/08 06:45:56;;;;;;;1999.90;999.90;;;3.60;99.90;;;;;;4992044;28;20176;-70
2023/12/08 06:48:23;;;;;;;1999.90;999.90;;;3.60;99.90;;;;;;4991922;28;20421;-70
2023/12/08 06:50:52;;;;;;;1999.90;999.90;;;3.70;99.90;;;;;;4992164;28;20235;-70
2023/12/08 06:53:17;;;;;;;1999.90;999.90;;;3.70;99.90;;;;;;4991739;28;20408;-70
2023/12/08 06:55:43;;;;;;;1999.90;999.90;;;3.70;99.90;;;;;;4994025;28;20409;-69
2023/12/08 06:58:09;;;;;;;1999.90;999.90;;;3.60;99.90;;;;;;4995878;28;20204;-70
2023/12/08 07:00:34;;;;;;;1999.90;999.90;;;3.60;99.90;;;;;;4995876;28;20173;-69
2023/12/08 07:03:00;;;;;;;1999.90;999.90;;;3.60;99.90;;;;;;4996106;28;20205;-70
2023/12/08 07:05:26;;;;;;;1999.90;999.90;;;3.60;99.90;;;;;;4996347;28;20524;-70
2023/12/08 07:07:51;;;;;;;1999.90;999.90;;;3.60;99.90;;;;;;4995509;28;20180;-70
2023/12/08 07:10:17;;;;;;;1999.90;999.90;;;3.60;99.90;;;;;;4995859;28;20189;-69
2023/12/08 07:12:43;;;;;;;1999.90;999.90;;;4.90;99.90;;;;;;4995836;28;20565;-70
2023/12/08 07:15:09;;;;;;;1999.90;999.90;;;3.70;99.90;;;;;;4995930;28;20554;-70
2023/12/08 07:17:35;;;;;;;1999.90;999.90;;;3.70;99.90;;;;;;4995608;28;20404;-70
2023/12/08 07:20:01;;;;;;;1999.90;999.90;;;3.60;99.90;;;;;;4995450;28;20432;-70
2023/12/08 07:22:27;;;;;;;1999.90;999.90;;;3.70;99.90;;;;;;4995559;28;20780;-70
2023/12/08 07:24:52;;;;;;;1999.90;999.90;;;3.70;99.90;;;;;;4995577;28;20860;-70
2023/12/08 07:27:18;;;;;;;1999.90;999.90;;;4.20;99.90;;;;;;4995454;28;20170;-71
2023/12/08 07:29:44;;;;;;;1999.90;999.90;;;3.60;99.90;;;;;;4995461;28;20312;-70
2023/12/08 07:32:10;;;;;;;1999.90;999.90;;;3.70;99.90;;;;;;4995589;28;20180;-70
2023/12/08 07:34:36;;;;;;;1999.90;999.90;;;3.70;99.90;;;;;;4995549;28;20229;-69
2023/12/08 07:37:01;;;;;;;1999.90;999.90;;;3.70;99.90;;;;;;4995178;28;20213;-69
2023/12/08 07:39:27;;;;;;;1999.90;999.90;;;3.70;99.90;;;;;;4995017;28;20681;-69
2023/12/08 07:41:53;;;;;;;1999.90;999.90;;;3.70;99.90;;;;;;4995272;28;20675;-71
2023/12/08 07:44:18;;;;;;;1999.90;999.90;;;3.80;99.90;;;;;;4995107;28;20463;-70
2023/12/08 07:46:44;;;;;;;1999.90;999.90;;;3.70;99.90;;;;;;4995530;28;20166;-70
2023/12/08 07:49:09;;;;;;;1999.90;999.90;;;3.80;99.90;;;;;;4994884;28;20281;-69
2023/12/08 07:51:36;;;;;;;1999.90;999.90;;;3.80;99.90;;;;;;4993971;28;20169;-70
2023/12/08 07:54:03;;;;;;;1999.90;999.90;;;3.90;99.90;;;;;;4994844;28;20189;-69
2023/12/08 07:56:29;;;;;;;1999.90;999.90;;;3.90;99.90;;;;;;4994939;28;20412;-71
2023/12/08 07:58:54;;;;;;;1999.90;999.90;;;4.00;99.90;;;;;;4994612;28;20436;-69
2023/12/08 08:01:20;;;;;;;1999.90;999.90;;;4.00;99.90;;;;;;4995090;28;20209;-70
2023/12/08 08:03:45;;;;;;;1999.90;999.90;;;4.00;99.90;;;;;;4994883;28;20193;-70
2023/12/08 08:06:11;;;;;;;1999.90;999.90;;;4.10;99.90;;;;;;4994721;28;20174;-70
2023/12/08 08:08:37;;;;;;;1999.90;999.90;;;4.20;99.90;;;;;;4994418;28;20209;-70
2023/12/08 08:11:03;;;;;;;1999.90;999.90;;;4.20;99.90;;;;;;4995041;28;20188;-71
2023/12/08 08:13:29;;;;;;;1999.90;999.90;;;4.20;99.90;;;;;;4994757;28;20173;-71
2023/12/08 08:15:55;;;;;;;1999.90;999.90;;;4.30;99.90;;;;;;4994777;28;20503;-71
2023/12/08 08:18:20;;;;;;;1999.90;999.90;;;4.30;99.90;;;;;;4994461;28;20935;-71
2023/12/08 08:20:46;;;;;;;1999.90;999.90;;;4.30;99.90;;;;;;4994583;28;20181;-71
2023/12/08 08:23:11;;;;;;;1999.90;999.90;;;4.30;99.90;;;;;;4994444;28;20198;-71
2023/12/08 08:25:37;;;;;;;1999.90;999.90;;;4.30;99.90;;;;;;4994492;28;20169;-72
2023/12/08 08:28:03;;;;;;;1999.90;999.90;;;4.20;99.90;;;;;;4994115;28;20637;-70
2023/12/08 08:30:29;;;;;;;1999.90;999.90;;;4.30;99.90;;;;;;4994614;28;20178;-71
2023/12/08 08:32:54;;;;;;;1999.90;999.90;;;4.40;99.90;;;;;;4994379;28;20770;-71
2023/12/08 08:35:20;;;;;;;1999.90;999.90;;;4.40;99.90;;;;;;4994325;28;20178;-71
2023/12/08 08:37:45;;;;;;;1999.90;999.90;;;4.40;99.90;;;;;;4994096;28;20252;-70
2023/12/08 08:40:11;;;;;;;1999.90;999.90;;;4.50;99.90;;;;;;4994283;28;20305;-72
2023/12/08 08:42:37;;;;;;;1999.90;999.90;;;4.50;99.90;;;;;;4993964;28;20178;-71
2023/12/08 08:45:04;;;;;;;1999.90;999.90;;;4.50;99.90;;;;;;4994233;28;20401;-72
2023/12/08 08:47:30;;;;;;;1999.90;999.90;;;4.50;99.90;;;;;;4994043;28;20177;-71
2023/12/08 08:49:55;;;;;;;1999.90;999.90;;;4.50;99.90;;;;;;4993921;28;20428;-70
2023/12/08 08:52:21;;;;;;;1999.90;999.90;;;4.60;99.90;;;;;;4993128;28;20170;-72
2023/12/08 08:54:47;;;;;;;1999.90;999.90;;;4.70;99.90;;;;;;4985238;28;20173;-71
2023/12/08 08:57:12;;;;;;;1999.90;999.90;;;4.70;99.90;;;;;;4983317;28;20178;-71
2023/12/08 08:59:38;;;;;;;1999.90;999.90;;;4.80;99.90;;;;;;4985227;28;20685;-70
2023/12/08 09:02:03;;;;;;;1999.90;999.90;;;4.80;99.90;;;;;;4987502;28;20292;-71
2023/12/08 09:04:29;;;;;;;1999.90;999.90;;;4.90;99.90;;;;;;4993604;28;20284;-72
2023/12/08 09:06:56;;;;;;;1999.90;999.90;;;5.00;99.90;;;;;;4989699;28;20421;-70
2023/12/08 09:09:22;;;;;;;1999.90;999.90;;;5.00;99.90;;;;;;4993303;28;20284;-71
2023/12/08 09:11:48;;;;;;;1999.90;999.90;;;5.00;99.90;;;;;;4993799;28;20771;-71
2023/12/08 09:14:14;;;;;;;1999.90;999.90;;;4.90;99.90;;;;;;4993404;28;20424;-71
2023/12/08 09:16:40;;;;;;;1999.90;999.90;;;4.90;99.90;;;;;;4990550;28;20181;-71
2023/12/08 09:19:06;;;;;;;1999.90;999.90;;;4.90;99.90;;;;;;4992621;28;20802;-71
2023/12/08 09:21:32;;;;;;;1999.90;999.90;;;4.90;99.90;;;;;;4993096;28;20261;-71
2023/12/08 09:23:58;;;;;;;1999.90;999.90;;;4.90;99.90;;;;;;4993475;28;20540;-72
2023/12/08 09:26:24;;;;;;;1999.90;999.90;;;4.90;99.90;;;;;;4993568;28;20165;-71
2023/12/08 09:28:49;;;;;;;1999.90;999.90;;;4.90;99.90;;;;;;4992905;28;20429;-71
2023/12/08 09:31:15;;;;;;;1999.90;999.90;;;4.90;99.90;;;;;;4993416;28;20534;-70
2023/12/08 09:33:44;;;;;;;1999.90;999.90;;;5.00;99.90;;;;;;4993454;28;20264;-71
2023/12/08 09:36:09;;;;;;;1999.90;999.90;;;5.00;99.90;;;;;;4992887;28;20409;-70
2023/12/08 09:38:35;;;;;;;1999.90;999.90;;;5.10;99.90;;;;;;4992969;28;20424;-70
2023/12/08 09:41:04;;;;;;;1999.90;999.90;;;5.20;99.90;;;;;;4992063;28;20681;-71
2023/12/08 09:44:09;;;;;;;1999.90;999.90;;;5.20;99.90;;;;;;4990826;28;20213;-71
2023/12/08 09:46:35;;;;;;;1999.90;999.90;;;5.30;99.90;;;;;;4982359;28;20456;-70
2023/12/08 09:49:07;;;;;;;1999.90;999.90;;;5.30;99.90;;;;;;4973508;28;21015;-70
2023/12/08 09:51:32;;;;;;;1999.90;999.90;;;5.40;99.90;;;;;;4973558;28;20433;-70
2023/12/08 09:53:59;;;;;;;1999.90;999.90;;;5.40;99.90;;;;;;4973357;28;20405;-71
2023/12/08 09:56:25;;;;;;;1999.90;999.90;;;5.50;99.90;;;;;;4973768;28;20166;-70
2023/12/08 09:58:51;;;;;;;1999.90;999.90;;;5.50;99.90;;;;;;4992486;28;20541;-70
2023/12/08 10:01:17;;;;;;;1999.90;999.90;;;5.60;99.90;;;;;;4991545;28;20927;-71
2023/12/08 10:03:44;;;;;;;1999.90;999.90;;;5.60;99.90;;;;;;4990212;28;20575;-71
2023/12/08 10:06:10;;;;;;;1999.90;999.90;;;5.70;99.90;;;;;;4989615;28;20252;-72
2023/12/08 10:08:37;;;;;;;1999.90;999.90;;;5.80;99.90;;;;;;5008587;23;20491;-70
2023/12/08 10:11:04;;;;;;;1999.90;999.90;;;5.90;99.90;;;;;;5008312;28;20428;-71
2023/12/08 10:13:31;;;;;;;1999.90;999.90;;;6.00;99.90;;;;;;5008903;28;20412;-70
2023/12/08 10:15:57;;;;;;;1999.90;999.90;;;6.00;99.90;;;;;;5008053;28;20437;-70
2023/12/08 10:18:23;;;;;;;1999.90;999.90;;;6.10;99.90;;;;;;4988734;28;20444;-70
2023/12/08 10:20:50;;;;;;;1999.90;999.90;;;6.20;99.90;;;;;;4983001;28;20672;-70
2023/12/08 10:23:22;;;;;;;1999.90;999.90;;;6.20;99.90;;;;;;4987872;28;20471;-70
2023/12/08 10:25:48;;;;;;;1999.90;999.90;;;6.20;99.90;;;;;;4991114;28;20785;-71
2023/12/08 10:28:14;;;;;;;1999.90;999.90;;;6.40;99.90;;;;;;4988379;28;20788;-70
2023/12/08 10:30:46;;;;;;;1999.90;999.90;;;6.30;99.90;;;;;;4986999;28;20405;-70
2023/12/08 10:33:21;;;;;;;1999.90;999.90;;;6.40;99.90;;;;;;4987917;28;20452;-69
2023/12/08 10:35:47;;;;;;;1999.90;999.90;;;6.10;99.90;;;;;;4987735;28;20431;-69
2023/12/08 10:38:13;;;;;;;1999.90;999.90;;;6.50;99.90;;;;;;4988472;28;20479;-69
2023/12/08 10:40:46;;;;;;;1999.90;999.90;;;6.40;99.90;;;;;;4988231;28;20456;-70
2023/12/08 10:43:20;;;;;;;1999.90;999.90;;;6.30;99.90;;;;;;4986998;28;20496;-70
2023/12/08 10:45:45;;;;;;;1999.90;999.90;;;6.40;99.90;;;;;;4987330;28;20425;-71
2023/12/08 10:48:12;;;;;;;1999.90;999.90;;;6.50;99.90;;;;;;4988179;28;20419;-72
2023/12/08 10:50:38;;;;;;;1999.90;999.90;;;6.40;99.90;;;;;;4987908;28;20256;-70
2023/12/08 10:53:05;;;;;;;1999.90;999.90;;;6.30;99.90;;;;;;4981357;28;20421;-70
2023/12/08 10:55:31;;;;;;;1999.90;999.90;;;6.40;99.90;;;;;;4988389;28;20773;-70
2023/12/08 10:57:58;;;;;;;1999.90;999.90;;;6.50;99.90;;;;;;4987635;28;20415;-70
2023/12/08 11:00:26;;;;;;;1999.90;999.90;;;6.40;99.90;;;;;;4987749;28;20545;-69
2023/12/08 11:02:53;;;;;;;1999.90;999.90;;;6.60;99.90;;;;;;4987789;28;20421;-70
2023/12/08 11:05:45;;;;;;;1999.90;999.90;;;6.70;99.90;;;;;;4987715;28;20990;-70
2023/12/08 11:08:12;;;;;;;1999.90;999.90;;;7.00;99.90;;;;;;4987078;28;20421;-71
2023/12/08 11:10:42;;;;;;;1999.90;999.90;;;6.90;99.90;;;;;;4988340;28;20479;-70
2023/12/08 11:13:12;;;;;;;1999.90;999.90;;;7.00;99.90;;;;;;4987716;28;20963;-70
2023/12/08 11:15:43;;;;;;;1999.90;999.90;;;7.10;99.90;;;;;;4987403;28;20416;-70
2023/12/08 11:18:21;;;;;;;1999.90;999.90;;;7.20;99.90;;;;;;4987073;28;20417;-70
2023/12/08 11:20:46;;;;;;;1999.90;999.90;;;7.20;99.90;;;;;;4987687;28;20425;-70
2023/12/08 11:23:12;;;;;;;1999.90;999.90;;;7.20;99.90;;;;;;4987803;28;20478;-70
2023/12/08 11:25:44;;;;;;;1999.90;999.90;;;7.30;99.90;;;;;;4987778;28;20252;-70
2023/12/08 11:28:29;;;;;;;1999.90;999.90;;;7.40;99.90;;;;;;4987160;28;20427;-69
2023/12/08 11:30:57;;;;;;;1999.90;999.90;;;7.30;99.90;;;;;;4987580;28;20417;-70
2023/12/08 11:33:53;;;;;;;1999.90;999.90;;;7.30;99.90;;;;;;4987215;28;20418;-69
2023/12/08 11:36:19;;;;;;;1999.90;999.90;;;7.20;99.90;;;;;;4988058;28;20424;-71
2023/12/08 11:38:44;;;;;;;1999.90;999.90;;;7.20;99.90;;;;;;4987273;28;20428;-70
2023/12/08 11:41:15;;;;;;;1999.90;999.90;;;7.20;99.90;;;;;;4988215;28;20181;-69
2023/12/08 11:43:45;;;;;;;1999.90;999.90;;;7.20;99.90;;;;;;4990732;28;20706;-71
2023/12/08 11:46:12;;;;;;;1999.90;999.90;;;7.20;99.90;;;;;;4987843;28;20429;-70
2023/12/08 11:48:38;;;;;;;1999.90;999.90;;;7.30;99.90;;;;;;4989526;28;20810;-69
2023/12/08 11:51:05;;;;;;;1999.90;999.90;;;7.30;99.90;;;;;;4986168;28;20424;-70
2023/12/08 11:54:05;;;;;;;1999.90;999.90;;;7.40;99.90;;;;;;4990970;28;20541;-70
2023/12/08 11:56:42;;;;;;;1999.90;999.90;;;7.40;99.90;;;;;;4983286;28;20422;-70
2023/12/08 11:59:08;;;;;;;1999.90;999.90;;;7.40;99.90;;;;;;4990590;28;20432;-71
2023/12/08 12:01:40;;;;;;;1999.90;999.90;;;7.40;99.90;;;;;;4990451;28;20470;-70
2023/12/08 12:04:08;;;;;;;1999.90;999.90;;;7.40;99.90;;;;;;4990488;28;20981;-70
2023/12/08 12:06:35;;;;;;;1999.90;999.90;;;7.40;99.90;;;;;;4991393;28;20417;-71